Time;durP1;ratioP1;P1;durP2;ratioP2;P2;SDS_P1;SDS_P2;PMS_P1;PMS_P2;Temp;Humidity;BMP_temperature;BMP_pressure;BME280_temperature;BME280_humidity;BME280_pressure;Samples;Min_cycle;Max_cycle;Signal;HPM_P1;HPM_P2
2021/12/26 00:00:45;;;;;;;20.55;9.05;;;;;;;;;;2098197;28;20488;-48
2021/12/26 00:01:47;;;;;;;17.55;8.48;;;;;;;;;;2100386;28;20052;-48
2021/12/26 00:02:48;;;;;;;15.77;7.72;;;;;;;;;;2113385;28;20332;-49
2021/12/26 00:03:50;;;;;;;11.85;5.95;;;;;;;;;;2115116;28;20409;-47
2021/12/26 00:04:51;;;;;;;;;;;;;;;;;;2110523;28;20421;-47
2021/12/26 00:05:53;;;;;;;15.05;7.07;;;;;;;;;;2100051;28;20369;-48
2021/12/26 00:06:54;;;;;;;15.82;7.18;;;;;;;;;;2098120;28;20048;-48
2021/12/26 00:07:55;;;;;;;22.02;7.53;;;;;;;;;;2101817;28;20042;-48
2021/12/26 00:08:57;;;;;;;16.03;7.40;;;;;;;;;;2106587;28;20048;-48
2021/12/26 00:09:58;;;;;;;;;;;;;;;;;;2106998;28;20359;-50
2021/12/26 00:10:59;;;;;;;13.88;6.60;;;;;;;;;;2104307;28;19920;-47
2021/12/26 00:12:00;;;;;;;13.13;6.10;;;;;;;;;;2098136;28;20083;-47
2021/12/26 00:13:01;;;;;;;11.32;6.10;;;;;;;;;;2098344;28;20062;-48
2021/12/26 00:14:05;;;;;;;13.63;6.70;;;;;;;;;;2103042;28;20055;-51
2021/12/26 00:15:07;;;;;;;14.57;6.57;;;;;;;;;;2105357;28;20493;-49
2021/12/26 00:16:08;;;;;;;11.20;6.43;;;;;;;;;;2105870;28;20154;-48
2021/12/26 00:17:09;;;;;;;13.27;6.47;;;;;;;;;;2104545;28;20504;-48
2021/12/26 00:18:10;;;;;;;13.88;6.57;;;;;;;;;;2106399;28;20055;-48
2021/12/26 00:19:12;;;;;;;14.05;6.47;;;;;;;;;;2106066;28;20150;-48
2021/12/26 00:20:13;;;;;;;11.98;6.07;;;;;;;;;;2105308;28;20396;-47
2021/12/26 00:21:14;;;;;;;12.77;6.00;;;;;;;;;;2098019;28;20131;-48
2021/12/26 00:22:16;;;;;;;9.98;5.05;;;;;;;;;;2098877;28;20054;-48
2021/12/26 00:23:17;;;;;;;13.90;5.45;;;;;;;;;;2105234;28;20135;-49
2021/12/26 00:24:19;;;;;;;14.38;6.45;;;;;;;;;;2106534;28;20544;-49
2021/12/26 00:25:20;;;;;;;14.68;6.43;;;;;;;;;;2104501;28;20056;-49
2021/12/26 00:26:21;;;;;;;14.70;6.75;;;;;;;;;;2111427;28;20079;-48
2021/12/26 00:27:21;;;;;;;13.00;6.30;;;;;;;;;;2114936;28;20047;-47
2021/12/26 00:28:23;;;;;;;12.32;6.68;;;;;;;;;;2110300;28;20048;-48
2021/12/26 00:29:24;;;;;;;14.95;7.45;;;;;;;;;;2105023;28;20131;-48
2021/12/26 00:30:25;;;;;;;13.38;6.38;;;;;;;;;;2106394;28;20044;-47
2021/12/26 00:31:26;;;;;;;13.88;7.45;;;;;;;;;;2105404;28;20141;-48
2021/12/26 00:32:27;;;;;;;18.65;7.70;;;;;;;;;;2109311;28;20054;-47
2021/12/26 00:33:28;;;;;;;19.37;7.50;;;;;;;;;;2114992;28;20409;-47
2021/12/26 00:34:30;;;;;;;15.00;7.07;;;;;;;;;;2108528;28;20048;-48
2021/12/26 00:35:31;;;;;;;15.13;6.85;;;;;;;;;;2105358;28;20067;-49
2021/12/26 00:36:32;;;;;;;13.07;6.82;;;;;;;;;;2106388;28;20066;-48
2021/12/26 00:37:33;;;;;;;12.32;6.57;;;;;;;;;;2107356;28;20123;-48
2021/12/26 00:38:34;;;;;;;16.17;7.15;;;;;;;;;;2106133;28;20043;-49
2021/12/26 00:39:35;;;;;;;15.57;6.80;;;;;;;;;;2106520;28;20044;-48
2021/12/26 00:40:36;;;;;;;14.13;6.72;;;;;;;;;;2106165;28;20067;-47
2021/12/26 00:41:39;;;;;;;12.87;6.67;;;;;;;;;;2098260;28;20064;-48
2021/12/26 00:42:40;;;;;;;14.30;6.55;;;;;;;;;;2097981;28;20496;-49
2021/12/26 00:43:41;;;;;;;11.18;6.07;;;;;;;;;;2102749;28;20382;-48
2021/12/26 00:44:42;;;;;;;9.35;5.40;;;;;;;;;;2098119;28;20049;-48
2021/12/26 00:45:43;;;;;;;11.60;6.18;;;;;;;;;;2097999;28;20413;-49
2021/12/26 00:46:44;;;;;;;10.93;5.95;;;;;;;;;;2102293;28;20048;-48
2021/12/26 00:47:46;;;;;;;11.88;6.30;;;;;;;;;;2097831;28;20045;-49
2021/12/26 00:48:47;;;;;;;12.38;6.30;;;;;;;;;;2098078;28;20178;-48
2021/12/26 00:49:49;;;;;;;10.82;5.57;;;;;;;;;;2107383;28;20048;-49
2021/12/26 00:50:50;;;;;;;15.80;5.93;;;;;;;;;;2114868;28;20054;-50
2021/12/26 00:51:51;;;;;;;10.90;5.33;;;;;;;;;;2113011;28;20135;-48
2021/12/26 00:52:52;;;;;;;14.23;6.50;;;;;;;;;;2104315;28;20046;-49
2021/12/26 00:53:53;;;;;;;10.00;4.95;;;;;;;;;;2106360;28;20047;-48
2021/12/26 00:54:54;;;;;;;14.45;7.20;;;;;;;;;;2105068;28;20096;-48
2021/12/26 00:55:55;;;;;;;16.77;8.38;;;;;;;;;;2105233;28;20067;-48
2021/12/26 00:56:56;;;;;;;17.55;8.60;;;;;;;;;;2106173;28;20568;-48
2021/12/26 00:57:57;;;;;;;18.80;8.25;;;;;;;;;;2104486;28;20112;-48
2021/12/26 00:58:58;;;;;;;22.85;9.60;;;;;;;;;;2103858;28;20425;-49
2021/12/26 00:59:59;;;;;;;15.57;8.07;;;;;;;;;;2097871;28;20055;-49
2021/12/26 01:01:00;;;;;;;20.08;8.20;;;;;;;;;;2099991;28;20214;-49
2021/12/26 01:02:02;;;;;;;16.33;7.68;;;;;;;;;;2103133;28;20071;-48
2021/12/26 01:03:04;;;;;;;16.10;7.78;;;;;;;;;;2097992;28;20040;-49
2021/12/26 01:04:05;;;;;;;17.90;8.23;;;;;;;;;;2101121;28;20123;-48
2021/12/26 01:05:08;;;;;;;18.30;8.40;;;;;;;;;;2104882;28;20075;-50
2021/12/26 01:06:09;;;;;;;21.92;8.70;;;;;;;;;;2106148;28;20043;-48
2021/12/26 01:07:19;;;;;;;19.23;9.18;;;;;;;;;;2104642;28;20637;-49
2021/12/26 01:08:24;;;;;;;18.38;7.70;;;;;;;;;;2105801;28;20500;-50
2021/12/26 01:09:28;;;;;;;20.35;8.07;;;;;;;;;;2106308;28;20281;-47
2021/12/26 01:10:33;;;;;;;13.50;7.18;;;;;;;;;;2105675;28;20363;-47
2021/12/26 01:11:36;;;;;;;20.30;8.90;;;;;;;;;;2097828;28;20285;-49
2021/12/26 01:12:39;;;;;;;14.10;7.28;;;;;;;;;;2098476;28;20052;-49
2021/12/26 01:13:40;;;;;;;17.40;8.50;;;;;;;;;;2104881;28;20189;-45
2021/12/26 01:14:48;;;;;;;14.77;7.53;;;;;;;;;;2106074;28;20293;-45
2021/12/26 01:15:50;;;;;;;18.00;8.00;;;;;;;;;;2104084;28;20404;-46
2021/12/26 01:17:00;;;;;;;15.45;7.10;;;;;;;;;;2111659;28;20139;-46
2021/12/26 01:18:01;;;;;;;15.77;7.13;;;;;;;;;;2114709;28;20092;-45
2021/12/26 01:19:11;;;;;;;15.30;6.60;;;;;;;;;;2106352;28;20503;-45
2021/12/26 01:20:17;;;;;;;19.00;7.88;;;;;;;;;;2113869;28;20268;-46
2021/12/26 01:21:21;;;;;;;19.25;7.47;;;;;;;;;;2107801;28;20078;-45
2021/12/26 01:22:23;;;;;;;16.08;7.13;;;;;;;;;;2102116;28;20420;-46
2021/12/26 01:23:25;;;;;;;14.30;6.57;;;;;;;;;;2105650;28;20134;-46
2021/12/26 01:24:26;;;;;;;16.65;6.80;;;;;;;;;;2105505;28;20121;-46
2021/12/26 01:25:27;;;;;;;19.27;7.17;;;;;;;;;;2101962;28;20071;-46
2021/12/26 01:26:29;;;;;;;12.07;5.70;;;;;;;;;;2097144;28;20132;-46
2021/12/26 01:27:30;;;;;;;16.02;7.25;;;;;;;;;;2098608;28;20054;-45
2021/12/26 01:28:32;;;;;;;15.03;6.80;;;;;;;;;;2103400;28;20580;-46
2021/12/26 01:29:34;;;;;;;14.82;7.20;;;;;;;;;;2106149;28;20044;-46
2021/12/26 01:30:38;;;;;;;9.98;5.97;;;;;;;;;;2103934;28;20404;-46
2021/12/26 01:31:39;;;;;;;15.75;6.47;;;;;;;;;;2101037;28;20052;-47
2021/12/26 01:32:40;;;;;;;17.08;6.72;;;;;;;;;;2096161;28;20738;-46
2021/12/26 01:33:41;;;;;;;13.15;6.40;;;;;;;;;;2100381;28;20580;-46
2021/12/26 01:34:42;;;;;;;14.27;6.90;;;;;;;;;;2105717;28;20056;-46
2021/12/26 01:35:44;;;;;;;11.82;6.75;;;;;;;;;;2106165;28;20052;-46
2021/12/26 01:36:46;;;;;;;;;;;;;;;;;;2105453;28;20044;-45
2021/12/26 01:37:47;;;;;;;13.15;5.43;;;;;;;;;;2105693;28;20004;-45
2021/12/26 01:38:48;;;;;;;12.48;5.82;;;;;;;;;;2105985;28;20339;-45
2021/12/26 01:39:49;;;;;;;13.63;6.10;;;;;;;;;;2102604;28;20482;-45
2021/12/26 01:40:52;;;;;;;12.70;6.13;;;;;;;;;;2105835;28;20051;-46
2021/12/26 01:41:53;;;;;;;15.20;6.57;;;;;;;;;;2106031;28;20121;-46
2021/12/26 01:43:00;;;;;;;13.00;5.57;;;;;;;;;;2103202;28;20292;-45
2021/12/26 01:44:04;;;;;;;11.45;5.43;;;;;;;;;;2097531;28;20040;-46
2021/12/26 01:45:07;;;;;;;12.15;5.82;;;;;;;;;;2098400;28;20360;-45
2021/12/26 01:46:08;;;;;;;12.15;6.40;;;;;;;;;;2104616;28;20051;-45
2021/12/26 01:47:09;;;;;;;14.63;6.20;;;;;;;;;;2097687;28;20040;-47
2021/12/26 01:48:12;;;;;;;13.88;6.57;;;;;;;;;;2099199;28;20044;-45
2021/12/26 01:49:15;;;;;;;18.27;7.70;;;;;;;;;;2103181;28;20036;-45
2021/12/26 01:50:15;;;;;;;21.50;7.53;;;;;;;;;;2097506;28;20884;-45
2021/12/26 01:51:17;;;;;;;17.52;7.35;;;;;;;;;;2098934;28;20281;-46
2021/12/26 01:52:18;;;;;;;18.00;7.15;;;;;;;;;;2105306;28;20051;-45
2021/12/26 01:53:22;;;;;;;17.23;7.07;;;;;;;;;;2106038;28;20127;-45
2021/12/26 01:54:27;;;;;;;14.63;7.53;;;;;;;;;;2103598;28;20051;-46
2021/12/26 01:55:38;;;;;;;20.85;6.95;;;;;;;;;;2104859;28;20364;-48
2021/12/26 01:56:41;;;;;;;19.40;6.55;;;;;;;;;;2105783;28;20701;-45
2021/12/26 01:57:43;;;;;;;19.35;8.25;;;;;;;;;;2105763;28;20318;-45
2021/12/26 01:58:43;;;;;;;13.00;5.05;;;;;;;;;;2097499;28;20056;-45
2021/12/26 01:59:46;;;;;;;12.52;6.50;;;;;;;;;;2097595;28;20048;-46
2021/12/26 02:00:48;;;;;;;13.70;6.60;;;;;;;;;;2103934;28;20044;-44
2021/12/26 02:01:50;;;;;;;15.68;6.95;;;;;;;;;;2105647;28;20650;-45
2021/12/26 02:02:51;;;;;;;16.38;7.47;;;;;;;;;;2104825;28;20048;-44
2021/12/26 02:03:52;;;;;;;17.27;7.85;;;;;;;;;;2104717;28;20048;-46
2021/12/26 02:04:53;;;;;;;23.92;9.10;;;;;;;;;;2105788;28;20131;-45
2021/12/26 02:05:54;;;;;;;25.30;9.77;;;;;;;;;;2104109;28;20632;-46
2021/12/26 02:06:56;;;;;;;34.22;13.73;;;;;;;;;;2108242;28;20162;-45
2021/12/26 02:07:57;;;;;;;32.88;13.77;;;;;;;;;;2114298;28;20127;-45
2021/12/26 02:08:58;;;;;;;37.45;14.18;;;;;;;;;;2109744;28;20753;-44
2021/12/26 02:09:59;;;;;;;42.60;14.45;;;;;;;;;;2104538;28;20131;-45
2021/12/26 02:11:02;;;;;;;25.63;10.50;;;;;;;;;;2105695;28;20101;-46
2021/12/26 02:12:04;;;;;;;26.20;10.20;;;;;;;;;;2105362;28;20142;-46
2021/12/26 02:13:05;;;;;;;21.98;9.05;;;;;;;;;;2100981;28;20284;-46
2021/12/26 02:14:06;;;;;;;21.50;9.38;;;;;;;;;;2097361;28;20478;-46
2021/12/26 02:15:07;;;;;;;21.77;9.00;;;;;;;;;;2101267;28;20098;-45
2021/12/26 02:16:09;;;;;;;24.08;9.88;;;;;;;;;;2104897;28;20047;-46
2021/12/26 02:17:10;;;;;;;20.73;8.02;;;;;;;;;;2105435;28;20128;-45
2021/12/26 02:18:11;;;;;;;24.90;10.07;;;;;;;;;;2102204;28;20382;-46
2021/12/26 02:19:13;;;;;;;22.45;10.40;;;;;;;;;;2105789;28;20044;-46
2021/12/26 02:20:19;;;;;;;28.38;11.05;;;;;;;;;;2105719;28;20066;-45
2021/12/26 02:21:32;;;;;;;31.85;12.68;;;;;;;;;;2106316;28;20066;-46
2021/12/26 02:22:37;;;;;;;28.15;11.18;;;;;;;;;;2097312;28;20365;-45
2021/12/26 02:23:45;;;;;;;29.40;11.13;;;;;;;;;;2098255;28;20312;-45
2021/12/26 02:25:14;;;;;;;30.55;12.10;;;;;;;;;;2100235;28;20281;-47
2021/12/26 02:27:42;;;;;;;25.35;10.23;;;;;;;;;;2104212;28;20265;-45
2021/12/26 02:28:45;;;;;;;21.45;9.43;;;;;;;;;;2105703;28;20706;-45
2021/12/26 02:29:46;;;;;;;25.00;9.88;;;;;;;;;;2103726;28;20276;-45
2021/12/26 02:30:47;;;;;;;24.15;9.00;;;;;;;;;;2104410;28;20355;-46
2021/12/26 02:31:49;;;;;;;21.92;8.90;;;;;;;;;;2103767;28;20071;-46
2021/12/26 02:32:51;;;;;;;22.55;8.93;;;;;;;;;;2101447;28;20390;-46
2021/12/26 02:33:52;;;;;;;22.27;9.02;;;;;;;;;;2106491;28;20409;-46
2021/12/26 02:34:53;;;;;;;22.67;9.57;;;;;;;;;;2105689;28;20507;-45
2021/12/26 02:35:55;;;;;;;23.75;9.75;;;;;;;;;;2104943;28;20560;-46
2021/12/26 02:36:56;;;;;;;20.20;9.70;;;;;;;;;;2099037;28;20045;-45
2021/12/26 02:37:57;;;;;;;21.90;8.88;;;;;;;;;;2097373;28;20048;-46
2021/12/26 02:38:59;;;;;;;21.52;9.18;;;;;;;;;;2102433;28;20162;-45
2021/12/26 02:40:00;;;;;;;20.55;8.35;;;;;;;;;;2099365;28;20123;-45
2021/12/26 02:41:02;;;;;;;28.50;10.63;;;;;;;;;;2098873;28;20360;-45
2021/12/26 02:42:04;;;;;;;19.08;8.55;;;;;;;;;;2106709;28;20123;-46
2021/12/26 02:43:06;;;;;;;22.17;9.18;;;;;;;;;;2098789;28;20613;-46
2021/12/26 02:44:07;;;;;;;19.80;9.10;;;;;;;;;;2098858;28;20123;-46
2021/12/26 02:45:08;;;;;;;20.70;9.00;;;;;;;;;;2106476;28;20376;-46
2021/12/26 02:46:09;;;;;;;23.35;9.88;;;;;;;;;;2115497;28;20503;-45
2021/12/26 02:47:10;;;;;;;26.02;9.70;;;;;;;;;;2114720;28;20048;-46
2021/12/26 02:48:11;;;;;;;20.87;10.00;;;;;;;;;;2106680;28;20056;-46
2021/12/26 02:49:12;;;;;;;14.15;6.65;;;;;;;;;;2098741;28;20044;-45
2021/12/26 02:50:15;;;;;;;21.45;8.60;;;;;;;;;;2099176;28;20044;-45
2021/12/26 02:51:16;;;;;;;19.08;8.45;;;;;;;;;;2105014;28;20052;-45
2021/12/26 02:52:17;;;;;;;17.75;8.02;;;;;;;;;;2107076;28;20372;-46
2021/12/26 02:53:20;;;;;;;17.80;7.15;;;;;;;;;;2105912;28;20145;-45
2021/12/26 02:54:23;;;;;;;13.23;6.45;;;;;;;;;;2106136;28;20076;-45
2021/12/26 02:55:23;;;;;;;14.48;7.50;;;;;;;;;;2107123;28;20291;-45
2021/12/26 02:56:25;;;;;;;12.30;6.03;;;;;;;;;;2105381;28;20637;-45
2021/12/26 02:57:26;;;;;;;14.07;6.88;;;;;;;;;;2104623;28;20128;-45
2021/12/26 02:58:27;;;;;;;13.98;7.13;;;;;;;;;;2098626;28;20144;-45
2021/12/26 02:59:30;;;;;;;13.68;5.95;;;;;;;;;;2101591;28;20173;-46
2021/12/26 03:00:32;;;;;;;14.50;6.63;;;;;;;;;;2105467;28;20127;-45
2021/12/26 03:01:33;;;;;;;12.93;5.68;;;;;;;;;;2106943;28;20289;-47
2021/12/26 03:02:35;;;;;;;11.70;5.32;;;;;;;;;;2105852;28;20555;-45
2021/12/26 03:03:36;;;;;;;9.93;4.82;;;;;;;;;;2106801;28;20517;-46
2021/12/26 03:04:37;;;;;;;11.03;5.63;;;;;;;;;;2107070;28;20048;-46
2021/12/26 03:05:39;;;;;;;14.65;6.32;;;;;;;;;;2104716;28;20043;-45
2021/12/26 03:06:48;;;;;;;;;;;;;;;;;;2113981;28;20143;-46
2021/12/26 03:07:50;;;;;;;10.07;4.43;;;;;;;;;;2115395;28;20006;-46
2021/12/26 03:08:54;;;;;;;12.30;6.05;;;;;;;;;;2105227;28;20360;-46
2021/12/26 03:09:59;;;;;;;9.85;5.32;;;;;;;;;;2106925;28;20130;-46
2021/12/26 03:11:00;;;;;;;13.77;5.15;;;;;;;;;;2106478;28;20730;-45
2021/12/26 03:12:01;;;;;;;16.13;6.18;;;;;;;;;;2105986;28;20139;-46
2021/12/26 03:13:03;;;;;;;16.60;6.93;;;;;;;;;;2106920;28;20047;-46
2021/12/26 03:14:04;;;;;;;14.52;6.95;;;;;;;;;;2105702;28;20497;-47
2021/12/26 03:15:06;;;;;;;11.50;5.22;;;;;;;;;;2105818;28;20882;-46
2021/12/26 03:16:07;;;;;;;13.82;5.95;;;;;;;;;;2106911;28;20284;-46
2021/12/26 03:17:08;;;;;;;15.53;7.50;;;;;;;;;;2105028;28;20073;-46
2021/12/26 03:18:09;;;;;;;10.43;5.57;;;;;;;;;;2104246;28;20252;-46
2021/12/26 03:19:10;;;;;;;10.20;5.20;;;;;;;;;;2098472;28;20474;-46
2021/12/26 03:20:12;;;;;;;12.85;6.28;;;;;;;;;;2100891;28;20043;-45
2021/12/26 03:21:13;;;;;;;14.48;5.32;;;;;;;;;;2100381;28;20130;-46
2021/12/26 03:22:15;;;;;;;19.27;6.60;;;;;;;;;;2098651;28;20288;-45
2021/12/26 03:23:18;;;;;;;17.30;8.07;;;;;;;;;;2101744;28;20056;-45
2021/12/26 03:24:19;;;;;;;13.45;6.93;;;;;;;;;;2105659;28;20048;-45
2021/12/26 03:25:21;;;;;;;12.38;7.03;;;;;;;;;;2106998;28;20826;-46
2021/12/26 03:26:22;;;;;;;13.15;7.55;;;;;;;;;;2104969;28;20043;-46
2021/12/26 03:27:23;;;;;;;19.65;9.30;;;;;;;;;;2106332;28;20762;-46
2021/12/26 03:29:44;;;;;;;15.25;6.97;;;;;;;;;;2105751;28;20063;-46
2021/12/26 03:30:45;;;;;;;16.60;8.25;;;;;;;;;;2115359;28;20364;-45
2021/12/26 03:31:46;;;;;;;15.55;6.88;;;;;;;;;;2113557;28;20065;-45
2021/12/26 03:32:47;;;;;;;15.73;7.65;;;;;;;;;;2107866;28;20128;-46
2021/12/26 03:33:48;;;;;;;19.70;8.27;;;;;;;;;;2106790;28;20059;-46
2021/12/26 03:34:50;;;;;;;17.27;8.30;;;;;;;;;;2105762;28;20129;-45
2021/12/26 03:35:51;;;;;;;16.20;7.60;;;;;;;;;;2104308;28;20537;-47
2021/12/26 03:36:53;;;;;;;12.25;5.65;;;;;;;;;;2098312;28;20048;-45
2021/12/26 03:37:54;;;;;;;17.85;7.05;;;;;;;;;;2099461;28;20195;-45
2021/12/26 03:38:56;;;;;;;15.35;7.63;;;;;;;;;;2105883;28;20375;-46
2021/12/26 03:39:57;;;;;;;15.75;8.27;;;;;;;;;;2106873;28;20044;-46
2021/12/26 03:40:58;;;;;;;17.13;7.43;;;;;;;;;;2104735;28;20051;-46
2021/12/26 03:41:59;;;;;;;20.95;8.15;;;;;;;;;;2111498;28;20040;-47
2021/12/26 03:43:00;;;;;;;16.40;7.25;;;;;;;;;;2115281;28;20149;-46
2021/12/26 03:44:13;;;;;;;20.13;8.82;;;;;;;;;;2107242;28;20047;-46
2021/12/26 03:45:14;;;;;;;;;;;;;;;;;;2106244;28;20405;-47
2021/12/26 03:46:15;;;;;;;16.20;7.38;;;;;;;;;;2106767;28;19920;-47
2021/12/26 03:47:16;;;;;;;14.13;6.32;;;;;;;;;;2104379;28;20120;-46
2021/12/26 03:48:18;;;;;;;16.38;7.40;;;;;;;;;;2106615;28;20080;-46
2021/12/26 03:49:19;;;;;;;17.42;8.27;;;;;;;;;;2106521;28;20074;-45
2021/12/26 03:50:21;;;;;;;14.73;8.18;;;;;;;;;;2103919;28;20048;-46
2021/12/26 03:51:22;;;;;;;;;;;;;;;;;;2098714;28;20071;-46
2021/12/26 03:52:23;;;;;;;15.25;7.13;;;;;;;;;;2098392;28;19920;-45
2021/12/26 03:53:24;;;;;;;18.38;8.85;;;;;;;;;;2104100;28;20045;-46
2021/12/26 03:54:26;;;;;;;21.35;8.95;;;;;;;;;;2106736;28;20051;-45
2021/12/26 03:55:27;;;;;;;16.88;8.68;;;;;;;;;;2106239;28;20181;-45
2021/12/26 03:56:29;;;;;;;13.68;7.15;;;;;;;;;;2104610;28;20132;-45
2021/12/26 03:57:30;;;;;;;18.30;7.88;;;;;;;;;;2106684;28;20052;-46
2021/12/26 03:58:31;;;;;;;19.95;8.68;;;;;;;;;;2106063;28;20131;-45
2021/12/26 03:59:32;;;;;;;16.37;8.30;;;;;;;;;;2107940;28;20488;-46
2021/12/26 04:00:33;;;;;;;16.23;7.18;;;;;;;;;;2115060;28;20201;-46
2021/12/26 04:01:35;;;;;;;17.17;7.30;;;;;;;;;;2111349;28;20063;-46
2021/12/26 04:02:36;;;;;;;19.10;8.10;;;;;;;;;;2110785;28;20043;-45
2021/12/26 04:03:37;;;;;;;16.73;7.70;;;;;;;;;;2114984;28;20516;-46
2021/12/26 04:04:38;;;;;;;14.45;8.57;;;;;;;;;;2110382;28;20044;-46
2021/12/26 04:05:39;;;;;;;17.88;8.40;;;;;;;;;;2100243;28;20048;-46
2021/12/26 04:06:40;;;;;;;16.92;8.63;;;;;;;;;;2098375;28;20051;-45
2021/12/26 04:07:41;;;;;;;17.27;8.55;;;;;;;;;;2105161;28;20464;-46
2021/12/26 04:08:42;;;;;;;19.75;9.30;;;;;;;;;;2099021;28;20056;-46
2021/12/26 04:09:44;;;;;;;14.20;7.37;;;;;;;;;;2101458;28;20048;-46
2021/12/26 04:10:45;;;;;;;17.27;8.68;;;;;;;;;;2106522;28;20040;-46
2021/12/26 04:11:46;;;;;;;11.40;6.27;;;;;;;;;;2098186;28;20045;-45
2021/12/26 04:12:49;;;;;;;23.85;10.00;;;;;;;;;;2098221;28;20333;-46
2021/12/26 04:13:51;;;;;;;20.65;8.80;;;;;;;;;;2106875;28;20098;-46
2021/12/26 04:14:52;;;;;;;20.65;9.52;;;;;;;;;;2106560;28;20284;-46
2021/12/26 04:15:53;;;;;;;20.77;9.00;;;;;;;;;;2106721;28;20272;-46
2021/12/26 04:16:54;;;;;;;18.10;8.10;;;;;;;;;;2103188;28;20071;-46
2021/12/26 04:17:57;;;;;;;19.83;8.67;;;;;;;;;;2106728;28;20051;-45
2021/12/26 04:18:57;;;;;;;18.85;8.88;;;;;;;;;;2105803;28;20488;-46
2021/12/26 04:19:58;;;;;;;19.77;8.80;;;;;;;;;;2101197;28;20280;-46
2021/12/26 04:21:00;;;;;;;25.25;9.93;;;;;;;;;;2098319;28;20163;-46
2021/12/26 04:22:02;;;;;;;23.10;9.25;;;;;;;;;;2098852;28;20054;-46
2021/12/26 04:23:03;;;;;;;17.05;8.18;;;;;;;;;;2109748;28;20127;-45
2021/12/26 04:24:05;;;;;;;21.45;9.70;;;;;;;;;;2114893;28;20288;-46
2021/12/26 04:25:07;;;;;;;19.27;9.27;;;;;;;;;;2110296;28;20485;-48
2021/12/26 04:26:08;;;;;;;26.77;9.65;;;;;;;;;;2106552;28;20051;-46
2021/12/26 04:27:09;;;;;;;20.33;10.32;;;;;;;;;;2106614;28;20746;-46
2021/12/26 04:28:11;;;;;;;22.20;11.07;;;;;;;;;;2105340;28;20442;-46
2021/12/26 04:29:12;;;;;;;22.48;9.90;;;;;;;;;;2111526;28;20134;-46
2021/12/26 04:30:14;;;;;;;29.65;13.45;;;;;;;;;;2114972;28;20063;-47
2021/12/26 04:31:15;;;;;;;31.30;13.50;;;;;;;;;;2109452;28;20040;-46
2021/12/26 04:32:16;;;;;;;38.13;15.57;;;;;;;;;;2099351;28;20098;-47
2021/12/26 04:33:18;;;;;;;39.65;15.98;;;;;;;;;;2098006;28;20806;-47
2021/12/26 04:34:18;;;;;;;40.65;17.52;;;;;;;;;;2102668;28;20175;-45
2021/12/26 04:35:20;;;;;;;52.07;18.73;;;;;;;;;;2099881;28;20098;-46
2021/12/26 04:36:21;;;;;;;44.38;17.17;;;;;;;;;;2098177;28;20139;-45
2021/12/26 04:37:22;;;;;;;45.83;17.67;;;;;;;;;;2104868;28;20556;-46
2021/12/26 04:38:23;;;;;;;35.37;15.47;;;;;;;;;;2098808;28;20048;-46
2021/12/26 04:39:24;;;;;;;22.50;9.02;;;;;;;;;;2098016;28;20136;-46
2021/12/26 04:40:26;;;;;;;32.80;13.82;;;;;;;;;;2103685;28;20071;-45
2021/12/26 04:41:27;;;;;;;35.97;14.73;;;;;;;;;;2098060;28;20059;-46
2021/12/26 04:42:29;;;;;;;28.27;11.35;;;;;;;;;;2097979;28;20485;-46
2021/12/26 04:43:29;;;;;;;32.55;12.80;;;;;;;;;;2102520;28;20143;-48
2021/12/26 04:44:31;;;;;;;26.83;10.68;;;;;;;;;;2098056;28;20105;-46
2021/12/26 04:45:32;;;;;;;28.88;11.25;;;;;;;;;;2098151;28;20177;-46
2021/12/26 04:46:33;;;;;;;21.95;10.73;;;;;;;;;;2103958;28;20060;-45
2021/12/26 04:47:34;;;;;;;27.75;11.70;;;;;;;;;;2106233;28;20089;-46
2021/12/26 04:48:36;;;;;;;26.58;12.48;;;;;;;;;;2105902;28;20044;-45
2021/12/26 04:49:37;;;;;;;27.27;12.77;;;;;;;;;;2104310;28;20777;-45
2021/12/26 04:50:38;;;;;;;28.10;12.07;;;;;;;;;;2106344;28;20044;-45
2021/12/26 04:51:38;;;;;;;26.08;11.40;;;;;;;;;;2105801;28;20127;-45
2021/12/26 04:52:41;;;;;;;25.58;11.98;;;;;;;;;;2104667;28;20405;-47
2021/12/26 04:53:42;;;;;;;26.52;12.77;;;;;;;;;;2106231;28;20074;-46
2021/12/26 04:54:43;;;;;;;38.10;13.98;;;;;;;;;;2104949;28;20277;-45
2021/12/26 04:55:45;;;;;;;28.08;13.35;;;;;;;;;;2110376;28;20143;-46
2021/12/26 04:56:46;;;;;;;34.78;13.15;;;;;;;;;;2114684;28;20127;-45
2021/12/26 04:57:47;;;;;;;33.90;13.25;;;;;;;;;;2110066;28;20040;-45
2021/12/26 04:58:48;;;;;;;26.20;13.27;;;;;;;;;;2103806;28;20048;-45
2021/12/26 04:59:49;;;;;;;25.40;9.85;;;;;;;;;;2097848;28;20458;-47
2021/12/26 05:00:50;;;;;;;30.20;12.73;;;;;;;;;;2100240;28;20050;-46
2021/12/26 05:01:53;;;;;;;32.75;14.25;;;;;;;;;;2102147;28;20055;-45
2021/12/26 05:02:55;;;;;;;29.45;13.20;;;;;;;;;;2097936;28;20041;-46
2021/12/26 05:03:56;;;;;;;30.10;15.02;;;;;;;;;;2100659;28;20281;-46
2021/12/26 05:04:58;;;;;;;26.38;12.57;;;;;;;;;;2113754;28;20725;-47
2021/12/26 05:05:58;;;;;;;29.83;13.07;;;;;;;;;;2110913;28;20131;-45
2021/12/26 05:07:00;;;;;;;31.95;14.90;;;;;;;;;;2102917;28;20044;-46
2021/12/26 05:08:01;;;;;;;30.35;11.57;;;;;;;;;;2104946;28;20430;-45
2021/12/26 05:09:03;;;;;;;26.63;10.73;;;;;;;;;;2106209;28;20127;-45
2021/12/26 05:10:04;;;;;;;28.63;12.90;;;;;;;;;;2104395;28;20284;-46
2021/12/26 05:11:06;;;;;;;26.95;13.05;;;;;;;;;;2114282;28;20559;-46
2021/12/26 05:12:07;;;;;;;21.98;10.50;;;;;;;;;;2114591;28;20489;-45
2021/12/26 05:13:08;;;;;;;30.40;13.65;;;;;;;;;;2104628;28;20519;-45
2021/12/26 05:14:09;;;;;;;31.98;12.73;;;;;;;;;;2106363;28;20134;-45
2021/12/26 05:15:11;;;;;;;31.55;13.75;;;;;;;;;;2106244;28;20051;-45
2021/12/26 05:16:18;;;;;;;28.23;12.25;;;;;;;;;;2104066;28;20048;-46
2021/12/26 05:17:19;;;;;;;32.42;13.43;;;;;;;;;;2106270;28;20285;-46
2021/12/26 05:18:20;;;;;;;32.40;13.47;;;;;;;;;;2105529;28;20537;-45
2021/12/26 05:19:21;;;;;;;35.47;15.25;;;;;;;;;;2104345;28;20195;-46
2021/12/26 05:20:23;;;;;;;34.03;15.33;;;;;;;;;;2106095;28;20455;-46
2021/12/26 05:21:23;;;;;;;31.90;14.60;;;;;;;;;;2104943;28;20062;-46
2021/12/26 05:22:25;;;;;;;36.72;15.70;;;;;;;;;;2104666;28;20074;-46
2021/12/26 05:23:26;;;;;;;38.90;16.98;;;;;;;;;;2097875;28;20060;-46
2021/12/26 05:24:27;;;;;;;37.37;16.73;;;;;;;;;;2098607;28;20048;-44
2021/12/26 05:25:28;;;;;;;40.03;16.60;;;;;;;;;;2104491;28;20037;-45
2021/12/26 05:26:29;;;;;;;38.87;15.37;;;;;;;;;;2097669;28;20052;-46
2021/12/26 05:27:30;;;;;;;40.22;17.75;;;;;;;;;;2100127;28;20052;-45
2021/12/26 05:28:31;;;;;;;40.17;16.40;;;;;;;;;;2111973;28;20051;-47
2021/12/26 05:29:32;;;;;;;37.00;14.57;;;;;;;;;;2114447;28;20075;-45
2021/12/26 05:30:33;;;;;;;36.35;14.40;;;;;;;;;;2109261;28;20135;-46
2021/12/26 05:31:34;;;;;;;42.75;16.67;;;;;;;;;;2104478;28;20052;-47
2021/12/26 05:32:35;;;;;;;32.47;13.80;;;;;;;;;;2097700;28;20052;-45
2021/12/26 05:33:36;;;;;;;37.42;15.15;;;;;;;;;;2101273;28;20653;-46
2021/12/26 05:34:37;;;;;;;42.47;15.50;;;;;;;;;;2105092;28;20040;-46
2021/12/26 05:35:38;;;;;;;35.63;14.27;;;;;;;;;;2105950;28;20527;-45
2021/12/26 05:36:39;;;;;;;36.33;14.77;;;;;;;;;;2106736;28;20096;-45
2021/12/26 05:37:40;;;;;;;38.40;13.73;;;;;;;;;;2098924;28;20190;-46
2021/12/26 05:38:42;;;;;;;36.35;15.82;;;;;;;;;;2097459;28;20056;-45
2021/12/26 05:39:43;;;;;;;32.75;14.50;;;;;;;;;;2102840;28;20047;-46
2021/12/26 05:40:44;;;;;;;29.23;14.13;;;;;;;;;;2105852;28;20412;-46
2021/12/26 05:41:45;;;;;;;33.40;14.35;;;;;;;;;;2106006;28;20064;-46
2021/12/26 05:42:46;;;;;;;35.97;14.82;;;;;;;;;;2103349;28;20069;-46
2021/12/26 05:43:47;;;;;;;37.13;16.02;;;;;;;;;;2105846;28;20413;-46
2021/12/26 05:44:48;;;;;;;42.37;16.10;;;;;;;;;;2106025;28;20048;-45
2021/12/26 05:45:49;;;;;;;34.30;15.98;;;;;;;;;;2101893;28;20044;-47
2021/12/26 05:46:50;;;;;;;41.50;17.70;;;;;;;;;;2097598;28;20049;-45
2021/12/26 05:47:51;;;;;;;35.33;15.45;;;;;;;;;;2098576;28;20053;-47
2021/12/26 05:48:53;;;;;;;47.33;17.43;;;;;;;;;;2108560;28;20470;-45
2021/12/26 05:49:56;;;;;;;43.28;16.02;;;;;;;;;;2105892;28;20063;-45
2021/12/26 05:50:58;;;;;;;41.90;17.33;;;;;;;;;;2104754;28;20422;-46
2021/12/26 05:51:58;;;;;;;44.70;17.85;;;;;;;;;;2104372;28;20276;-46
2021/12/26 05:52:59;;;;;;;42.15;16.90;;;;;;;;;;2106057;28;20461;-47
2021/12/26 05:54:00;;;;;;;50.45;18.23;;;;;;;;;;2104802;28;20410;-47
2021/12/26 05:55:02;;;;;;;45.35;18.77;;;;;;;;;;2104500;28;20056;-45
2021/12/26 05:56:03;;;;;;;49.38;19.05;;;;;;;;;;2105910;28;20086;-45
2021/12/26 05:57:06;;;;;;;41.10;18.27;;;;;;;;;;2103650;28;20127;-45
2021/12/26 05:58:07;;;;;;;43.25;17.67;;;;;;;;;;2099081;28;20069;-47
2021/12/26 05:59:08;;;;;;;42.15;17.38;;;;;;;;;;2097500;28;20372;-46
2021/12/26 06:00:11;;;;;;;44.70;17.08;;;;;;;;;;2101299;28;20052;-46
2021/12/26 06:01:11;;;;;;;42.35;17.70;;;;;;;;;;2104867;28;20080;-46
2021/12/26 06:02:13;;;;;;;40.05;17.50;;;;;;;;;;2105490;28;20284;-46
2021/12/26 06:03:14;;;;;;;43.22;18.15;;;;;;;;;;2106629;28;20048;-46
2021/12/26 06:04:15;;;;;;;36.92;13.70;;;;;;;;;;2097464;28;20052;-46
2021/12/26 06:05:17;;;;;;;39.88;17.67;;;;;;;;;;2097476;28;20505;-45
2021/12/26 06:06:18;;;;;;;44.30;18.30;;;;;;;;;;2103790;28;20059;-47
2021/12/26 06:07:19;;;;;;;43.58;17.13;;;;;;;;;;2105809;28;20432;-46